Mears, Virginia
Current Conditions -  °F | °C
As of 5:54 AM on Thursday 23 Oct 2014 (Local Time) from KWAL Reporting Station
Overcast Overcast  
Wind Chill: 12°   Ceiling: 2900
Heat Index: 12°   Visibility: 10mi
Dew Point:   Wind: 14mph
Humidity: 80%   Direction: 320°NW
Pressure: 29.79"   Gusts: 23mph
Location:  37.86°N, 75.62°W
Report Text: KWAL 230954Z AUTO 32012G20KT 10SM OVC029 12/08 A2979 RMK AO2 SLP086 T01170083
Loading
Personal Weather Stations






























Interactive Weather Map
Tropical Storm Tracking
New forecast layout! Learn more

10-Day Weather Forecast

Advertisements
Track Severe Weather on mobile